sensor_id;sensor_type;location;lat;lon;timestamp;P1;durP1;ratioP1;P2;durP2;ratioP2
50591;SDS011;36548;50.506;30.834;2023-08-20T18:57:05;8.95;;;7.97;;
50591;SDS011;36548;50.506;30.834;2023-08-20T18:58:14;12.28;;;10.08;;
50591;SDS011;36548;50.506;30.834;2023-08-20T18:59:30;13.38;;;10.03;;
50591;SDS011;36548;50.506;30.834;2023-08-20T19:00:41;15.80;;;10.27;;
50591;SDS011;36548;50.506;30.834;2023-08-20T19:01:56;11.66;;;9.84;;
50591;SDS011;36548;50.506;30.834;2023-08-20T19:03:05;10.03;;;9.08;;
50591;SDS011;36548;50.506;30.834;2023-08-20T19:04:21;12.75;;;8.73;;
50591;SDS011;36548;50.506;30.834;2023-08-20T19:05:31;9.80;;;8.47;;
50591;SDS011;36548;50.506;30.834;2023-08-20T19:06:46;12.08;;;8.37;;
50591;SDS011;36548;50.506;30.834;2023-08-20T19:08:01;9.98;;;7.98;;
50591;SDS011;36548;50.506;30.834;2023-08-20T19:09:17;8.32;;;7.55;;
50591;SDS011;36548;50.506;30.834;2023-08-20T19:10:27;11.02;;;9.55;;
50591;SDS011;36548;50.506;30.834;2023-08-20T19:11:36;8.48;;;7.62;;
50591;SDS011;36548;50.506;30.834;2023-08-20T19:12:51;8.83;;;7.90;;
50591;SDS011;36548;50.506;30.834;2023-08-20T19:14:01;10.25;;;8.85;;
50591;SDS011;36548;50.506;30.834;2023-08-20T19:15:23;8.68;;;7.73;;
50591;SDS011;36548;50.506;30.834;2023-08-20T19:16:32;10.57;;;8.17;;
50591;SDS011;36548;50.506;30.834;2023-08-20T19:17:54;10.17;;;8.60;;
50591;SDS011;36548;50.506;30.834;2023-08-20T19:19:03;9.38;;;8.40;;
50591;SDS011;36548;50.506;30.834;2023-08-20T19:20:14;9.80;;;8.80;;
50591;SDS011;36548;50.506;30.834;2023-08-20T19:21:25;10.25;;;7.85;;
50591;SDS011;36548;50.506;30.834;2023-08-20T19:22:42;10.70;;;7.62;;
50591;SDS011;36548;50.506;30.834;2023-08-20T19:23:51;8.77;;;7.48;;
50591;SDS011;36548;50.506;30.834;2023-08-20T19:25:08;11.12;;;7.97;;
50591;SDS011;36548;50.506;30.834;2023-08-20T19:26:18;8.88;;;7.80;;
50591;SDS011;36548;50.506;30.834;2023-08-20T19:27:34;9.48;;;7.67;;
50591;SDS011;36548;50.506;30.834;2023-08-20T19:28:43;11.16;;;7.80;;
50591;SDS011;36548;50.506;30.834;2023-08-20T19:29:53;8.70;;;7.80;;
50591;SDS011;36548;50.506;30.834;2023-08-20T19:31:08;8.77;;;7.85;;
50591;SDS011;36548;50.506;30.834;2023-08-20T19:32:19;8.10;;;7.20;;
50591;SDS011;36548;50.506;30.834;2023-08-20T19:33:29;9.58;;;7.68;;
50591;SDS011;36548;50.506;30.834;2023-08-20T19:34:42;11.57;;;7.97;;
50591;SDS011;36548;50.506;30.834;2023-08-20T19:35:57;8.23;;;7.40;;
50591;SDS011;36548;50.506;30.834;2023-08-20T19:37:13;7.52;;;6.70;;
50591;SDS011;36548;50.506;30.834;2023-08-20T19:38:22;9.38;;;7.03;;
50591;SDS011;36548;50.506;30.834;2023-08-20T19:39:33;7.75;;;7.00;;
50591;SDS011;36548;50.506;30.834;2023-08-20T19:40:48;8.53;;;7.72;;
50591;SDS011;36548;50.506;30.834;2023-08-20T19:41:57;9.12;;;7.50;;
50591;SDS011;36548;50.506;30.834;2023-08-20T19:43:12;8.70;;;7.78;;
50591;SDS011;36548;50.506;30.834;2023-08-20T19:44:22;9.00;;;7.85;;
50591;SDS011;36548;50.506;30.834;2023-08-20T19:45:37;9.25;;;7.72;;
50591;SDS011;36548;50.506;30.834;2023-08-20T19:46:47;10.75;;;9.65;;
50591;SDS011;36548;50.506;30.834;2023-08-20T19:48:02;10.57;;;9.58;;
50591;SDS011;36548;50.506;30.834;2023-08-20T19:49:11;12.40;;;9.03;;
50591;SDS011;36548;50.506;30.834;2023-08-20T19:50:21;8.10;;;7.30;;
50591;SDS011;36548;50.506;30.834;2023-08-20T19:51:36;9.58;;;8.07;;
50591;SDS011;36548;50.506;30.834;2023-08-20T19:54:03;11.20;;;10.22;;
50591;SDS011;36548;50.506;30.834;2023-08-20T19:55:18;8.33;;;7.55;;
50591;SDS011;36548;50.506;30.834;2023-08-20T19:56:27;8.92;;;7.23;;
50591;SDS011;36548;50.506;30.834;2023-08-20T19:57:37;7.84;;;6.62;;
50591;SDS011;36548;50.506;30.834;2023-08-20T19:58:49;6.95;;;6.38;;
50591;SDS011;36548;50.506;30.834;2023-08-20T19:59:59;6.90;;;6.20;;
50591;SDS011;36548;50.506;30.834;2023-08-20T20:01:14;9.17;;;7.00;;
50591;SDS011;36548;50.506;30.834;2023-08-20T20:02:23;8.57;;;7.45;;
50591;SDS011;36548;50.506;30.834;2023-08-20T20:03:38;8.02;;;7.23;;
50591;SDS011;36548;50.506;30.834;2023-08-20T20:04:48;7.83;;;7.05;;
50591;SDS011;36548;50.506;30.834;2023-08-20T20:06:03;9.32;;;7.52;;
50591;SDS011;36548;50.506;30.834;2023-08-20T20:07:12;9.55;;;8.08;;
50591;SDS011;36548;50.506;30.834;2023-08-20T20:08:27;9.90;;;8.02;;
50591;SDS011;36548;50.506;30.834;2023-08-20T20:09:36;8.60;;;7.47;;
50591;SDS011;36548;50.506;30.834;2023-08-20T20:10:52;10.50;;;7.60;;
50591;SDS011;36548;50.506;30.834;2023-08-20T20:12:01;8.73;;;7.92;;
50591;SDS011;36548;50.506;30.834;2023-08-20T20:13:11;11.37;;;8.02;;
50591;SDS011;36548;50.506;30.834;2023-08-20T20:14:20;9.88;;;7.30;;
50591;SDS011;36548;50.506;30.834;2023-08-20T20:15:29;7.93;;;7.00;;
50591;SDS011;36548;50.506;30.834;2023-08-20T20:16:44;10.93;;;7.77;;
50591;SDS011;36548;50.506;30.834;2023-08-20T20:17:54;9.13;;;7.77;;
50591;SDS011;36548;50.506;30.834;2023-08-20T20:19:10;8.57;;;7.42;;
50591;SDS011;36548;50.506;30.834;2023-08-20T20:20:20;8.32;;;6.82;;
50591;SDS011;36548;50.506;30.834;2023-08-20T20:21:30;8.95;;;7.58;;
50591;SDS011;36548;50.506;30.834;2023-08-20T20:22:47;8.50;;;7.63;;
50591;SDS011;36548;50.506;30.834;2023-08-20T20:23:56;9.45;;;7.57;;
50591;SDS011;36548;50.506;30.834;2023-08-20T20:25:11;7.87;;;6.93;;
50591;SDS011;36548;50.506;30.834;2023-08-20T20:26:22;8.23;;;7.13;;
50591;SDS011;36548;50.506;30.834;2023-08-20T20:27:32;7.47;;;6.80;;
50591;SDS011;36548;50.506;30.834;2023-08-20T20:28:49;8.07;;;7.42;;
50591;SDS011;36548;50.506;30.834;2023-08-20T20:29:58;8.23;;;7.15;;
50591;SDS011;36548;50.506;30.834;2023-08-20T20:31:09;7.98;;;7.08;;
50591;SDS011;36548;50.506;30.834;2023-08-20T20:32:18;7.65;;;6.93;;
50591;SDS011;36548;50.506;30.834;2023-08-20T20:33:28;8.18;;;7.50;;
50591;SDS011;36548;50.506;30.834;2023-08-20T20:34:36;7.77;;;7.03;;
50591;SDS011;36548;50.506;30.834;2023-08-20T20:35:52;7.15;;;6.55;;
50591;SDS011;36548;50.506;30.834;2023-08-20T20:37:02;7.03;;;6.45;;
50591;SDS011;36548;50.506;30.834;2023-08-20T20:38:11;8.15;;;6.93;;
50591;SDS011;36548;50.506;30.834;2023-08-20T20:39:27;7.37;;;6.60;;
50591;SDS011;36548;50.506;30.834;2023-08-20T20:40:41;7.50;;;6.50;;
50591;SDS011;36548;50.506;30.834;2023-08-20T20:41:53;7.70;;;6.98;;
50591;SDS011;36548;50.506;30.834;2023-08-20T20:44:12;8.93;;;7.37;;
50591;SDS011;36548;50.506;30.834;2023-08-20T20:45:22;11.10;;;7.80;;
50591;SDS011;36548;50.506;30.834;2023-08-20T20:46:37;7.85;;;7.08;;
50591;SDS011;36548;50.506;30.834;2023-08-20T20:47:47;8.68;;;7.08;;
50591;SDS011;36548;50.506;30.834;2023-08-20T20:48:57;7.85;;;7.15;;
50591;SDS011;36548;50.506;30.834;2023-08-20T20:50:06;8.23;;;7.42;;
50591;SDS011;36548;50.506;30.834;2023-08-20T20:51:16;7.37;;;6.65;;
50591;SDS011;36548;50.506;30.834;2023-08-20T20:52:25;7.25;;;6.58;;
50591;SDS011;36548;50.506;30.834;2023-08-20T20:53:34;7.86;;;7.06;;
50591;SDS011;36548;50.506;30.834;2023-08-20T20:54:44;8.00;;;7.00;;
50591;SDS011;36548;50.506;30.834;2023-08-20T20:56:07;7.47;;;6.78;;
50591;SDS011;36548;50.506;30.834;2023-08-20T20:57:17;8.83;;;6.58;;
50591;SDS011;36548;50.506;30.834;2023-08-20T20:58:34;7.00;;;6.43;;
50591;SDS011;36548;50.506;30.834;2023-08-20T20:59:44;7.70;;;6.25;;
50591;SDS011;36548;50.506;30.834;2023-08-20T21:00:55;7.43;;;6.82;;
50591;SDS011;36548;50.506;30.834;2023-08-20T21:02:05;7.12;;;6.43;;
50591;SDS011;36548;50.506;30.834;2023-08-20T21:03:21;6.72;;;6.07;;
50591;SDS011;36548;50.506;30.834;2023-08-20T21:05:40;6.74;;;6.06;;
50591;SDS011;36548;50.506;30.834;2023-08-20T21:06:59;7.10;;;6.50;;
50591;SDS011;36548;50.506;30.834;2023-08-20T21:08:08;6.50;;;5.90;;
50591;SDS011;36548;50.506;30.834;2023-08-20T21:09:24;7.45;;;6.80;;
50591;SDS011;36548;50.506;30.834;2023-08-20T21:10:34;8.14;;;6.54;;
50591;SDS011;36548;50.506;30.834;2023-08-20T21:11:49;7.06;;;6.24;;
50591;SDS011;36548;50.506;30.834;2023-08-20T21:12:58;7.80;;;7.05;;
50591;SDS011;36548;50.506;30.834;2023-08-20T21:14:14;7.12;;;6.52;;
50591;SDS011;36548;50.506;30.834;2023-08-20T21:15:24;7.05;;;6.50;;
50591;SDS011;36548;50.506;30.834;2023-08-20T21:16:40;6.76;;;6.16;;
50591;SDS011;36548;50.506;30.834;2023-08-20T21:17:50;7.25;;;6.35;;
50591;SDS011;36548;50.506;30.834;2023-08-20T21:19:05;6.85;;;6.28;;
50591;SDS011;36548;50.506;30.834;2023-08-20T21:20:16;7.68;;;6.77;;
50591;SDS011;36548;50.506;30.834;2023-08-20T21:21:32;8.87;;;6.53;;
50591;SDS011;36548;50.506;30.834;2023-08-20T21:22:41;7.30;;;6.62;;
50591;SDS011;36548;50.506;30.834;2023-08-20T21:23:50;7.55;;;6.87;;
50591;SDS011;36548;50.506;30.834;2023-08-20T21:26:23;7.78;;;6.72;;
50591;SDS011;36548;50.506;30.834;2023-08-20T21:27:39;6.95;;;6.43;;
50591;SDS011;36548;50.506;30.834;2023-08-20T21:28:47;7.05;;;6.45;;
50591;SDS011;36548;50.506;30.834;2023-08-20T21:30:03;8.13;;;6.65;;
50591;SDS011;36548;50.506;30.834;2023-08-20T21:31:13;6.35;;;5.90;;
50591;SDS011;36548;50.506;30.834;2023-08-20T21:32:23;6.65;;;6.05;;
50591;SDS011;36548;50.506;30.834;2023-08-20T21:33:39;6.82;;;6.22;;
50591;SDS011;36548;50.506;30.834;2023-08-20T21:34:48;6.87;;;6.30;;
50591;SDS011;36548;50.506;30.834;2023-08-20T21:36:04;7.18;;;6.48;;
50591;SDS011;36548;50.506;30.834;2023-08-20T21:37:14;6.45;;;5.92;;
50591;SDS011;36548;50.506;30.834;2023-08-20T21:38:29;8.18;;;6.58;;
50591;SDS011;36548;50.506;30.834;2023-08-20T21:39:38;6.60;;;6.00;;
50591;SDS011;36548;50.506;30.834;2023-08-20T21:40:54;6.97;;;6.32;;
50591;SDS011;36548;50.506;30.834;2023-08-20T21:42:05;6.25;;;5.75;;
50591;SDS011;36548;50.506;30.834;2023-08-20T21:43:14;6.75;;;6.15;;
50591;SDS011;36548;50.506;30.834;2023-08-20T21:44:29;8.08;;;6.40;;
50591;SDS011;36548;50.506;30.834;2023-08-20T21:45:39;7.75;;;7.05;;
50591;SDS011;36548;50.506;30.834;2023-08-20T21:46:51;7.60;;;6.75;;
50591;SDS011;36548;50.506;30.834;2023-08-20T21:48:08;6.70;;;6.10;;
50591;SDS011;36548;50.506;30.834;2023-08-20T21:49:17;6.68;;;6.10;;
50591;SDS011;36548;50.506;30.834;2023-08-20T21:50:35;6.80;;;5.95;;
50591;SDS011;36548;50.506;30.834;2023-08-20T21:51:44;8.15;;;6.50;;
50591;SDS011;36548;50.506;30.834;2023-08-20T21:52:59;6.75;;;6.10;;
50591;SDS011;36548;50.506;30.834;2023-08-20T21:54:09;6.98;;;6.22;;
50591;SDS011;36548;50.506;30.834;2023-08-20T21:55:18;7.25;;;6.37;;
50591;SDS011;36548;50.506;30.834;2023-08-20T21:56:34;7.10;;;6.48;;
50591;SDS011;36548;50.506;30.834;2023-08-20T21:57:43;7.45;;;6.70;;
50591;SDS011;36548;50.506;30.834;2023-08-20T21:59:01;6.85;;;6.22;;
50591;SDS011;36548;50.506;30.834;2023-08-20T22:00:12;6.68;;;6.08;;
50591;SDS011;36548;50.506;30.834;2023-08-20T22:01:37;6.73;;;6.15;;
50591;SDS011;36548;50.506;30.834;2023-08-20T22:02:46;7.17;;;6.48;;
50591;SDS011;36548;50.506;30.834;2023-08-20T22:04:02;7.33;;;6.63;;
50591;SDS011;36548;50.506;30.834;2023-08-20T22:05:14;7.30;;;6.58;;
50591;SDS011;36548;50.506;30.834;2023-08-20T22:06:32;6.70;;;6.10;;
50591;SDS011;36548;50.506;30.834;2023-08-20T22:07:42;9.20;;;6.70;;
50591;SDS011;36548;50.506;30.834;2023-08-20T22:09:00;7.02;;;6.35;;
50591;SDS011;36548;50.506;30.834;2023-08-20T22:10:11;7.06;;;6.46;;
50591;SDS011;36548;50.506;30.834;2023-08-20T22:11:21;8.60;;;6.98;;
50591;SDS011;36548;50.506;30.834;2023-08-20T22:12:37;7.68;;;6.85;;
50591;SDS011;36548;50.506;30.834;2023-08-20T22:13:47;7.90;;;6.75;;
50591;SDS011;36548;50.506;30.834;2023-08-20T22:15:00;7.87;;;7.10;;
50591;SDS011;36548;50.506;30.834;2023-08-20T22:16:15;7.55;;;6.85;;
50591;SDS011;36548;50.506;30.834;2023-08-20T22:17:24;7.38;;;6.67;;
50591;SDS011;36548;50.506;30.834;2023-08-20T22:18:40;7.68;;;6.93;;
50591;SDS011;36548;50.506;30.834;2023-08-20T22:19:50;7.97;;;7.00;;
50591;SDS011;36548;50.506;30.834;2023-08-20T22:21:05;7.68;;;6.90;;
50591;SDS011;36548;50.506;30.834;2023-08-20T22:22:14;7.20;;;6.60;;
50591;SDS011;36548;50.506;30.834;2023-08-20T22:23:30;7.28;;;6.53;;
50591;SDS011;36548;50.506;30.834;2023-08-20T22:24:39;7.27;;;6.67;;
50591;SDS011;36548;50.506;30.834;2023-08-20T22:25:49;7.70;;;6.90;;
50591;SDS011;36548;50.506;30.834;2023-08-20T22:26:59;7.25;;;6.45;;
50591;SDS011;36548;50.506;30.834;2023-08-20T22:28:14;8.00;;;7.32;;
50591;SDS011;36548;50.506;30.834;2023-08-20T22:29:23;6.77;;;6.18;;
50591;SDS011;36548;50.506;30.834;2023-08-20T22:30:34;7.93;;;7.23;;
50591;SDS011;36548;50.506;30.834;2023-08-20T22:31:46;7.33;;;6.70;;
50591;SDS011;36548;50.506;30.834;2023-08-20T22:32:55;7.30;;;6.70;;
50591;SDS011;36548;50.506;30.834;2023-08-20T22:35:14;7.06;;;6.48;;
50591;SDS011;36548;50.506;30.834;2023-08-20T22:36:29;7.25;;;6.58;;
50591;SDS011;36548;50.506;30.834;2023-08-20T22:37:39;7.34;;;6.64;;
50591;SDS011;36548;50.506;30.834;2023-08-20T22:38:49;7.60;;;6.90;;
50591;SDS011;36548;50.506;30.834;2023-08-20T22:39:59;7.85;;;6.25;;
50591;SDS011;36548;50.506;30.834;2023-08-20T22:41:08;6.80;;;6.24;;
50591;SDS011;36548;50.506;30.834;2023-08-20T22:42:42;7.57;;;6.82;;
50591;SDS011;36548;50.506;30.834;2023-08-20T22:43:52;7.15;;;6.55;;
50591;SDS011;36548;50.506;30.834;2023-08-20T22:45:01;7.32;;;6.62;;
50591;SDS011;36548;50.506;30.834;2023-08-20T22:46:12;7.43;;;6.65;;
50591;SDS011;36548;50.506;30.834;2023-08-20T22:47:28;7.63;;;6.90;;
50591;SDS011;36548;50.506;30.834;2023-08-20T22:48:37;7.47;;;6.78;;
50591;SDS011;36548;50.506;30.834;2023-08-20T22:49:47;7.60;;;7.00;;
50591;SDS011;36548;50.506;30.834;2023-08-20T22:51:02;7.30;;;6.70;;
50591;SDS011;36548;50.506;30.834;2023-08-20T22:52:11;8.17;;;6.98;;
50591;SDS011;36548;50.506;30.834;2023-08-20T22:53:27;7.40;;;6.50;;
50591;SDS011;36548;50.506;30.834;2023-08-20T22:54:36;7.90;;;6.93;;
50591;SDS011;36548;50.506;30.834;2023-08-20T22:55:50;7.77;;;6.60;;
50591;SDS011;36548;50.506;30.834;2023-08-20T22:57:00;7.88;;;7.20;;
50591;SDS011;36548;50.506;30.834;2023-08-20T22:58:16;7.38;;;6.73;;
50591;SDS011;36548;50.506;30.834;2023-08-20T22:59:27;7.80;;;7.03;;
50591;SDS011;36548;50.506;30.834;2023-08-20T23:00:42;7.48;;;6.83;;
50591;SDS011;36548;50.506;30.834;2023-08-20T23:01:53;7.98;;;6.93;;
50591;SDS011;36548;50.506;30.834;2023-08-20T23:03:04;7.38;;;6.72;;
50591;SDS011;36548;50.506;30.834;2023-08-20T23:04:20;7.27;;;6.52;;
50591;SDS011;36548;50.506;30.834;2023-08-20T23:05:29;7.75;;;7.05;;
50591;SDS011;36548;50.506;30.834;2023-08-20T23:06:47;8.17;;;7.45;;
50591;SDS011;36548;50.506;30.834;2023-08-20T23:07:56;7.80;;;7.17;;
50591;SDS011;36548;50.506;30.834;2023-08-20T23:09:05;7.75;;;7.07;;
50591;SDS011;36548;50.506;30.834;2023-08-20T23:10:21;7.87;;;7.17;;
50591;SDS011;36548;50.506;30.834;2023-08-20T23:11:30;8.08;;;7.27;;
50591;SDS011;36548;50.506;30.834;2023-08-20T23:12:39;8.05;;;7.10;;
50591;SDS011;36548;50.506;30.834;2023-08-20T23:13:54;7.55;;;6.73;;
50591;SDS011;36548;50.506;30.834;2023-08-20T23:15:04;7.42;;;6.80;;
50591;SDS011;36548;50.506;30.834;2023-08-20T23:16:15;7.17;;;6.55;;
50591;SDS011;36548;50.506;30.834;2023-08-20T23:17:30;7.45;;;6.75;;
50591;SDS011;36548;50.506;30.834;2023-08-20T23:18:39;7.75;;;7.12;;
50591;SDS011;36548;50.506;30.834;2023-08-20T23:19:49;7.17;;;6.52;;
50591;SDS011;36548;50.506;30.834;2023-08-20T23:21:05;6.80;;;6.20;;
50591;SDS011;36548;50.506;30.834;2023-08-20T23:22:16;7.93;;;7.13;;
50591;SDS011;36548;50.506;30.834;2023-08-20T23:23:32;7.38;;;6.73;;
50591;SDS011;36548;50.506;30.834;2023-08-20T23:24:43;8.57;;;6.45;;
50591;SDS011;36548;50.506;30.834;2023-08-20T23:25:53;8.03;;;7.17;;
50591;SDS011;36548;50.506;30.834;2023-08-20T23:27:08;7.28;;;6.70;;
50591;SDS011;36548;50.506;30.834;2023-08-20T23:29:42;7.56;;;6.88;;
50591;SDS011;36548;50.506;30.834;2023-08-20T23:30:50;7.60;;;6.88;;
50591;SDS011;36548;50.506;30.834;2023-08-20T23:32:00;9.35;;;7.65;;
50591;SDS011;36548;50.506;30.834;2023-08-20T23:33:11;7.95;;;7.25;;
50591;SDS011;36548;50.506;30.834;2023-08-20T23:34:21;8.17;;;7.43;;
50591;SDS011;36548;50.506;30.834;2023-08-20T23:35:31;9.55;;;7.20;;
50591;SDS011;36548;50.506;30.834;2023-08-20T23:36:43;7.58;;;6.88;;
50591;SDS011;36548;50.506;30.834;2023-08-20T23:37:59;7.60;;;6.93;;
50591;SDS011;36548;50.506;30.834;2023-08-20T23:39:09;7.46;;;6.74;;
50591;SDS011;36548;50.506;30.834;2023-08-20T23:41:29;9.60;;;7.55;;
50591;SDS011;36548;50.506;30.834;2023-08-20T23:42:39;7.25;;;6.65;;
50591;SDS011;36548;50.506;30.834;2023-08-20T23:43:55;7.28;;;6.62;;
50591;SDS011;36548;50.506;30.834;2023-08-20T23:45:04;7.53;;;6.55;;
50591;SDS011;36548;50.506;30.834;2023-08-20T23:46:41;7.82;;;7.08;;
50591;SDS011;36548;50.506;30.834;2023-08-20T23:47:53;7.90;;;7.10;;
50591;SDS011;36548;50.506;30.834;2023-08-20T23:49:10;8.25;;;7.40;;
50591;SDS011;36548;50.506;30.834;2023-08-20T23:50:21;7.78;;;7.05;;
50591;SDS011;36548;50.506;30.834;2023-08-20T23:51:30;7.78;;;6.98;;
50591;SDS011;36548;50.506;30.834;2023-08-20T23:52:39;7.93;;;6.98;;
50591;SDS011;36548;50.506;30.834;2023-08-20T23:53:49;7.85;;;7.25;;
50591;SDS011;36548;50.506;30.834;2023-08-20T23:54:58;7.78;;;7.05;;
50591;SDS011;36548;50.506;30.834;2023-08-20T23:56:08;7.50;;;6.80;;
50591;SDS011;36548;50.506;30.834;2023-08-20T23:57:25;7.85;;;6.67;;
50591;SDS011;36548;50.506;30.834;2023-08-20T23:58:34;7.57;;;6.82;;
50591;SDS011;36548;50.506;30.834;2023-08-20T23:59:45;7.40;;;6.70;;
